sensor_id;sensor_type;location;lat;lon;timestamp;P1;durP1;ratioP1;P2;durP2;ratioP2
57325;SDS011;43161;50.950;18.224;2023-06-10T00:00:38;27.10;;;17.90;;
57325;SDS011;43161;50.950;18.224;2023-06-10T00:03:07;29.00;;;19.00;;
57325;SDS011;43161;50.950;18.224;2023-06-10T00:05:34;27.90;;;18.50;;
57325;SDS011;43161;50.950;18.224;2023-06-10T00:08:02;27.40;;;19.00;;
57325;SDS011;43161;50.950;18.224;2023-06-10T00:10:33;28.30;;;18.20;;
57325;SDS011;43161;50.950;18.224;2023-06-10T00:13:03;27.10;;;18.60;;
57325;SDS011;43161;50.950;18.224;2023-06-10T00:15:30;28.30;;;19.30;;
57325;SDS011;43161;50.950;18.224;2023-06-10T00:17:56;29.70;;;18.60;;
57325;SDS011;43161;50.950;18.224;2023-06-10T00:20:22;27.30;;;18.90;;
57325;SDS011;43161;50.950;18.224;2023-06-10T00:22:51;31.30;;;18.50;;
57325;SDS011;43161;50.950;18.224;2023-06-10T00:25:18;30.40;;;19.50;;
57325;SDS011;43161;50.950;18.224;2023-06-10T00:27:44;28.00;;;18.50;;
57325;SDS011;43161;50.950;18.224;2023-06-10T00:30:10;28.20;;;19.60;;
57325;SDS011;43161;50.950;18.224;2023-06-10T00:32:36;29.10;;;19.40;;
57325;SDS011;43161;50.950;18.224;2023-06-10T00:35:03;30.20;;;19.50;;
57325;SDS011;43161;50.950;18.224;2023-06-10T00:37:29;28.20;;;18.90;;
57325;SDS011;43161;50.950;18.224;2023-06-10T00:39:55;29.70;;;19.50;;
57325;SDS011;43161;50.950;18.224;2023-06-10T00:42:21;30.00;;;18.60;;
57325;SDS011;43161;50.950;18.224;2023-06-10T00:44:53;28.30;;;18.60;;
57325;SDS011;43161;50.950;18.224;2023-06-10T00:47:20;29.30;;;19.70;;
57325;SDS011;43161;50.950;18.224;2023-06-10T00:49:47;28.80;;;19.40;;
57325;SDS011;43161;50.950;18.224;2023-06-10T00:52:13;29.30;;;19.30;;
57325;SDS011;43161;50.950;18.224;2023-06-10T00:54:41;28.30;;;19.70;;
57325;SDS011;43161;50.950;18.224;2023-06-10T00:57:06;32.00;;;19.90;;
57325;SDS011;43161;50.950;18.224;2023-06-10T00:59:32;28.60;;;19.90;;
57325;SDS011;43161;50.950;18.224;2023-06-10T01:01:59;29.50;;;20.40;;
57325;SDS011;43161;50.950;18.224;2023-06-10T01:04:24;28.60;;;20.70;;
57325;SDS011;43161;50.950;18.224;2023-06-10T01:06:54;29.40;;;20.20;;
57325;SDS011;43161;50.950;18.224;2023-06-10T01:09:41;29.30;;;20.00;;
57325;SDS011;43161;50.950;18.224;2023-06-10T01:12:17;32.40;;;20.20;;
57325;SDS011;43161;50.950;18.224;2023-06-10T01:14:50;29.40;;;20.30;;
57325;SDS011;43161;50.950;18.224;2023-06-10T01:17:17;31.70;;;20.30;;
57325;SDS011;43161;50.950;18.224;2023-06-10T01:19:43;29.20;;;19.80;;
57325;SDS011;43161;50.950;18.224;2023-06-10T01:22:09;32.40;;;20.50;;
57325;SDS011;43161;50.950;18.224;2023-06-10T01:24:36;36.20;;;21.10;;
57325;SDS011;43161;50.950;18.224;2023-06-10T01:27:06;37.40;;;22.00;;
57325;SDS011;43161;50.950;18.224;2023-06-10T01:29:37;29.20;;;20.20;;
57325;SDS011;43161;50.950;18.224;2023-06-10T01:34:55;31.70;;;21.30;;
57325;SDS011;43161;50.950;18.224;2023-06-10T01:37:21;30.90;;;20.70;;
57325;SDS011;43161;50.950;18.224;2023-06-10T01:39:50;29.10;;;20.30;;
57325;SDS011;43161;50.950;18.224;2023-06-10T01:42:16;33.40;;;20.30;;
57325;SDS011;43161;50.950;18.224;2023-06-10T01:44:42;34.00;;;21.50;;
57325;SDS011;43161;50.950;18.224;2023-06-10T01:47:08;32.20;;;20.70;;
57325;SDS011;43161;50.950;18.224;2023-06-10T01:49:34;29.90;;;20.30;;
57325;SDS011;43161;50.950;18.224;2023-06-10T01:52:00;31.50;;;20.30;;
57325;SDS011;43161;50.950;18.224;2023-06-10T01:54:26;29.00;;;19.80;;
57325;SDS011;43161;50.950;18.224;2023-06-10T01:56:51;29.80;;;19.70;;
57325;SDS011;43161;50.950;18.224;2023-06-10T01:59:17;32.30;;;20.70;;
57325;SDS011;43161;50.950;18.224;2023-06-10T02:01:43;32.30;;;19.10;;
57325;SDS011;43161;50.950;18.224;2023-06-10T02:04:09;29.80;;;20.50;;
57325;SDS011;43161;50.950;18.224;2023-06-10T02:06:35;28.20;;;18.30;;
57325;SDS011;43161;50.950;18.224;2023-06-10T02:09:01;29.60;;;19.90;;
57325;SDS011;43161;50.950;18.224;2023-06-10T02:11:27;30.00;;;20.50;;
57325;SDS011;43161;50.950;18.224;2023-06-10T02:13:52;30.30;;;20.90;;
57325;SDS011;43161;50.950;18.224;2023-06-10T02:16:18;26.90;;;19.50;;
57325;SDS011;43161;50.950;18.224;2023-06-10T02:18:44;28.80;;;19.90;;
57325;SDS011;43161;50.950;18.224;2023-06-10T02:21:09;28.70;;;20.10;;
57325;SDS011;43161;50.950;18.224;2023-06-10T02:23:36;28.90;;;20.10;;
57325;SDS011;43161;50.950;18.224;2023-06-10T02:26:01;30.00;;;19.80;;
57325;SDS011;43161;50.950;18.224;2023-06-10T02:28:27;28.90;;;19.80;;
57325;SDS011;43161;50.950;18.224;2023-06-10T02:30:53;31.90;;;21.30;;
57325;SDS011;43161;50.950;18.224;2023-06-10T02:33:19;31.60;;;20.20;;
57325;SDS011;43161;50.950;18.224;2023-06-10T02:35:45;30.30;;;20.50;;
57325;SDS011;43161;50.950;18.224;2023-06-10T02:38:11;28.50;;;21.30;;
57325;SDS011;43161;50.950;18.224;2023-06-10T02:40:37;28.90;;;21.10;;
57325;SDS011;43161;50.950;18.224;2023-06-10T02:43:02;29.90;;;20.80;;
57325;SDS011;43161;50.950;18.224;2023-06-10T02:45:28;32.70;;;20.40;;
57325;SDS011;43161;50.950;18.224;2023-06-10T02:47:54;30.60;;;21.10;;
57325;SDS011;43161;50.950;18.224;2023-06-10T02:50:19;28.50;;;19.80;;
57325;SDS011;43161;50.950;18.224;2023-06-10T02:52:45;31.50;;;21.30;;
57325;SDS011;43161;50.950;18.224;2023-06-10T02:55:11;32.30;;;21.10;;
57325;SDS011;43161;50.950;18.224;2023-06-10T02:57:37;30.00;;;21.20;;
57325;SDS011;43161;50.950;18.224;2023-06-10T03:00:03;28.30;;;20.50;;
57325;SDS011;43161;50.950;18.224;2023-06-10T03:02:34;31.10;;;21.40;;
57325;SDS011;43161;50.950;18.224;2023-06-10T03:05:04;30.00;;;21.00;;
57325;SDS011;43161;50.950;18.224;2023-06-10T03:07:30;32.50;;;22.00;;
57325;SDS011;43161;50.950;18.224;2023-06-10T03:09:57;31.20;;;22.20;;
57325;SDS011;43161;50.950;18.224;2023-06-10T03:12:22;29.80;;;21.10;;
57325;SDS011;43161;50.950;18.224;2023-06-10T03:14:48;30.40;;;22.10;;
57325;SDS011;43161;50.950;18.224;2023-06-10T03:17:14;30.00;;;21.70;;
57325;SDS011;43161;50.950;18.224;2023-06-10T03:19:39;30.20;;;22.60;;
57325;SDS011;43161;50.950;18.224;2023-06-10T03:22:12;29.80;;;21.00;;
57325;SDS011;43161;50.950;18.224;2023-06-10T03:24:38;33.20;;;20.50;;
57325;SDS011;43161;50.950;18.224;2023-06-10T03:27:06;30.10;;;20.30;;
57325;SDS011;43161;50.950;18.224;2023-06-10T03:29:35;29.40;;;20.80;;
57325;SDS011;43161;50.950;18.224;2023-06-10T03:32:01;28.80;;;21.20;;
57325;SDS011;43161;50.950;18.224;2023-06-10T03:34:27;33.70;;;20.50;;
57325;SDS011;43161;50.950;18.224;2023-06-10T03:36:53;30.70;;;20.60;;
57325;SDS011;43161;50.950;18.224;2023-06-10T03:39:18;29.90;;;20.40;;
57325;SDS011;43161;50.950;18.224;2023-06-10T03:41:44;29.40;;;20.60;;
57325;SDS011;43161;50.950;18.224;2023-06-10T03:44:10;30.70;;;20.40;;
57325;SDS011;43161;50.950;18.224;2023-06-10T03:46:35;29.80;;;19.20;;
57325;SDS011;43161;50.950;18.224;2023-06-10T03:49:01;27.40;;;19.30;;
57325;SDS011;43161;50.950;18.224;2023-06-10T03:51:26;28.10;;;19.10;;
57325;SDS011;43161;50.950;18.224;2023-06-10T03:53:52;28.80;;;19.40;;
57325;SDS011;43161;50.950;18.224;2023-06-10T03:56:18;30.70;;;20.00;;
57325;SDS011;43161;50.950;18.224;2023-06-10T03:58:44;30.00;;;19.80;;
57325;SDS011;43161;50.950;18.224;2023-06-10T04:01:09;28.80;;;20.30;;
57325;SDS011;43161;50.950;18.224;2023-06-10T04:03:36;29.10;;;19.20;;
57325;SDS011;43161;50.950;18.224;2023-06-10T04:06:01;26.90;;;18.70;;
57325;SDS011;43161;50.950;18.224;2023-06-10T04:08:28;26.60;;;18.80;;
57325;SDS011;43161;50.950;18.224;2023-06-10T04:10:54;27.80;;;19.30;;
57325;SDS011;43161;50.950;18.224;2023-06-10T04:13:19;25.20;;;18.10;;
57325;SDS011;43161;50.950;18.224;2023-06-10T04:15:45;25.40;;;18.80;;
57325;SDS011;43161;50.950;18.224;2023-06-10T04:18:11;26.50;;;18.30;;
57325;SDS011;43161;50.950;18.224;2023-06-10T04:20:37;26.80;;;18.60;;
57325;SDS011;43161;50.950;18.224;2023-06-10T04:23:03;27.90;;;18.70;;
57325;SDS011;43161;50.950;18.224;2023-06-10T04:25:28;27.70;;;18.10;;
57325;SDS011;43161;50.950;18.224;2023-06-10T04:27:55;25.00;;;17.90;;
57325;SDS011;43161;50.950;18.224;2023-06-10T04:30:20;26.80;;;18.70;;
57325;SDS011;43161;50.950;18.224;2023-06-10T04:32:47;25.50;;;17.80;;
57325;SDS011;43161;50.950;18.224;2023-06-10T04:35:12;27.30;;;17.80;;
57325;SDS011;43161;50.950;18.224;2023-06-10T04:37:39;26.00;;;17.50;;
57325;SDS011;43161;50.950;18.224;2023-06-10T04:40:06;25.90;;;17.60;;
57325;SDS011;43161;50.950;18.224;2023-06-10T04:42:33;24.30;;;17.50;;
57325;SDS011;43161;50.950;18.224;2023-06-10T04:44:59;23.70;;;16.10;;
57325;SDS011;43161;50.950;18.224;2023-06-10T04:47:25;25.30;;;17.10;;
57325;SDS011;43161;50.950;18.224;2023-06-10T04:49:52;25.40;;;17.20;;
57325;SDS011;43161;50.950;18.224;2023-06-10T04:52:17;24.10;;;17.60;;
57325;SDS011;43161;50.950;18.224;2023-06-10T04:54:43;25.80;;;17.80;;
57325;SDS011;43161;50.950;18.224;2023-06-10T04:57:09;23.00;;;17.20;;
57325;SDS011;43161;50.950;18.224;2023-06-10T04:59:37;21.70;;;15.80;;
57325;SDS011;43161;50.950;18.224;2023-06-10T05:02:04;25.50;;;16.70;;
57325;SDS011;43161;50.950;18.224;2023-06-10T05:04:30;26.30;;;16.10;;
57325;SDS011;43161;50.950;18.224;2023-06-10T05:06:56;26.90;;;16.60;;
57325;SDS011;43161;50.950;18.224;2023-06-10T05:09:22;22.40;;;15.20;;
57325;SDS011;43161;50.950;18.224;2023-06-10T05:11:47;24.10;;;16.10;;
57325;SDS011;43161;50.950;18.224;2023-06-10T05:14:13;24.20;;;15.20;;
57325;SDS011;43161;50.950;18.224;2023-06-10T05:16:41;22.70;;;16.10;;
57325;SDS011;43161;50.950;18.224;2023-06-10T05:19:08;24.70;;;15.90;;
57325;SDS011;43161;50.950;18.224;2023-06-10T05:21:34;25.30;;;15.90;;
57325;SDS011;43161;50.950;18.224;2023-06-10T05:24:00;23.30;;;15.90;;
57325;SDS011;43161;50.950;18.224;2023-06-10T05:26:25;23.00;;;14.90;;
57325;SDS011;43161;50.950;18.224;2023-06-10T05:28:51;23.40;;;14.60;;
57325;SDS011;43161;50.950;18.224;2023-06-10T05:31:17;22.60;;;14.50;;
57325;SDS011;43161;50.950;18.224;2023-06-10T05:33:43;23.20;;;15.20;;
57325;SDS011;43161;50.950;18.224;2023-06-10T05:36:09;23.40;;;15.30;;
57325;SDS011;43161;50.950;18.224;2023-06-10T05:38:34;20.90;;;14.20;;
57325;SDS011;43161;50.950;18.224;2023-06-10T05:41:00;20.60;;;13.10;;
57325;SDS011;43161;50.950;18.224;2023-06-10T05:43:26;19.30;;;13.80;;
57325;SDS011;43161;50.950;18.224;2023-06-10T05:45:52;19.30;;;13.40;;
57325;SDS011;43161;50.950;18.224;2023-06-10T05:48:17;21.70;;;13.40;;
57325;SDS011;43161;50.950;18.224;2023-06-10T05:50:45;19.20;;;12.00;;
57325;SDS011;43161;50.950;18.224;2023-06-10T05:53:16;16.30;;;10.90;;
57325;SDS011;43161;50.950;18.224;2023-06-10T05:55:45;15.70;;;10.60;;
57325;SDS011;43161;50.950;18.224;2023-06-10T05:58:11;17.90;;;10.50;;
57325;SDS011;43161;50.950;18.224;2023-06-10T06:00:38;16.20;;;9.30;;
57325;SDS011;43161;50.950;18.224;2023-06-10T06:03:06;19.10;;;9.60;;
57325;SDS011;43161;50.950;18.224;2023-06-10T06:05:34;16.20;;;9.50;;
57325;SDS011;43161;50.950;18.224;2023-06-10T06:08:09;14.50;;;7.80;;
57325;SDS011;43161;50.950;18.224;2023-06-10T06:10:35;14.90;;;8.90;;
57325;SDS011;43161;50.950;18.224;2023-06-10T06:13:01;14.60;;;9.10;;
57325;SDS011;43161;50.950;18.224;2023-06-10T06:15:27;15.90;;;8.70;;
57325;SDS011;43161;50.950;18.224;2023-06-10T06:17:53;15.10;;;8.10;;
57325;SDS011;43161;50.950;18.224;2023-06-10T06:20:19;17.40;;;8.80;;
57325;SDS011;43161;50.950;18.224;2023-06-10T06:22:46;15.70;;;8.20;;
57325;SDS011;43161;50.950;18.224;2023-06-10T06:25:11;15.40;;;8.50;;
57325;SDS011;43161;50.950;18.224;2023-06-10T06:27:37;14.60;;;8.60;;
57325;SDS011;43161;50.950;18.224;2023-06-10T06:30:03;16.10;;;9.20;;
57325;SDS011;43161;50.950;18.224;2023-06-10T06:32:30;14.60;;;9.40;;
57325;SDS011;43161;50.950;18.224;2023-06-10T06:34:56;17.40;;;9.00;;
57325;SDS011;43161;50.950;18.224;2023-06-10T06:37:22;17.50;;;9.30;;
57325;SDS011;43161;50.950;18.224;2023-06-10T06:39:52;17.00;;;9.30;;
57325;SDS011;43161;50.950;18.224;2023-06-10T06:42:19;15.80;;;8.90;;
57325;SDS011;43161;50.950;18.224;2023-06-10T06:44:46;14.80;;;9.00;;
57325;SDS011;43161;50.950;18.224;2023-06-10T06:47:12;15.20;;;8.20;;
57325;SDS011;43161;50.950;18.224;2023-06-10T06:49:38;14.80;;;7.80;;
57325;SDS011;43161;50.950;18.224;2023-06-10T06:52:04;13.60;;;7.40;;
57325;SDS011;43161;50.950;18.224;2023-06-10T06:54:30;12.60;;;7.40;;
57325;SDS011;43161;50.950;18.224;2023-06-10T06:56:56;14.00;;;7.30;;
57325;SDS011;43161;50.950;18.224;2023-06-10T06:59:22;13.60;;;7.70;;
57325;SDS011;43161;50.950;18.224;2023-06-10T07:01:49;15.10;;;8.30;;
57325;SDS011;43161;50.950;18.224;2023-06-10T07:04:15;14.60;;;8.30;;
57325;SDS011;43161;50.950;18.224;2023-06-10T07:06:42;16.90;;;8.50;;
57325;SDS011;43161;50.950;18.224;2023-06-10T07:09:07;15.70;;;9.10;;
57325;SDS011;43161;50.950;18.224;2023-06-10T07:11:36;14.30;;;8.70;;
57325;SDS011;43161;50.950;18.224;2023-06-10T07:14:02;14.50;;;8.80;;
57325;SDS011;43161;50.950;18.224;2023-06-10T07:16:28;18.80;;;9.30;;
57325;SDS011;43161;50.950;18.224;2023-06-10T07:18:53;15.30;;;9.20;;
57325;SDS011;43161;50.950;18.224;2023-06-10T07:21:19;15.00;;;9.70;;
57325;SDS011;43161;50.950;18.224;2023-06-10T07:23:45;17.90;;;9.40;;
57325;SDS011;43161;50.950;18.224;2023-06-10T07:26:11;16.10;;;9.40;;
57325;SDS011;43161;50.950;18.224;2023-06-10T07:28:41;14.80;;;9.80;;
57325;SDS011;43161;50.950;18.224;2023-06-10T07:31:07;17.10;;;9.00;;
57325;SDS011;43161;50.950;18.224;2023-06-10T07:33:33;15.10;;;8.70;;
57325;SDS011;43161;50.950;18.224;2023-06-10T07:36:00;16.30;;;9.10;;
57325;SDS011;43161;50.950;18.224;2023-06-10T07:38:26;17.10;;;9.00;;
57325;SDS011;43161;50.950;18.224;2023-06-10T07:40:51;14.60;;;8.70;;
57325;SDS011;43161;50.950;18.224;2023-06-10T07:43:17;13.50;;;8.30;;
57325;SDS011;43161;50.950;18.224;2023-06-10T07:45:43;12.70;;;7.40;;
57325;SDS011;43161;50.950;18.224;2023-06-10T07:48:10;13.40;;;7.10;;
57325;SDS011;43161;50.950;18.224;2023-06-10T07:50:35;14.50;;;7.50;;
57325;SDS011;43161;50.950;18.224;2023-06-10T07:53:01;12.70;;;7.50;;
57325;SDS011;43161;50.950;18.224;2023-06-10T07:55:27;14.30;;;7.40;;
57325;SDS011;43161;50.950;18.224;2023-06-10T07:57:53;14.80;;;7.40;;
57325;SDS011;43161;50.950;18.224;2023-06-10T08:00:19;13.50;;;8.10;;
57325;SDS011;43161;50.950;18.224;2023-06-10T08:02:46;13.50;;;8.30;;
57325;SDS011;43161;50.950;18.224;2023-06-10T08:05:12;15.00;;;7.90;;
57325;SDS011;43161;50.950;18.224;2023-06-10T08:07:38;12.80;;;8.10;;
57325;SDS011;43161;50.950;18.224;2023-06-10T08:10:05;14.90;;;8.40;;
57325;SDS011;43161;50.950;18.224;2023-06-10T08:12:31;16.90;;;8.50;;
57325;SDS011;43161;50.950;18.224;2023-06-10T08:14:58;13.30;;;8.10;;
57325;SDS011;43161;50.950;18.224;2023-06-10T08:17:24;13.30;;;7.00;;
57325;SDS011;43161;50.950;18.224;2023-06-10T08:19:49;14.50;;;7.40;;
57325;SDS011;43161;50.950;18.224;2023-06-10T08:22:15;11.70;;;6.10;;
57325;SDS011;43161;50.950;18.224;2023-06-10T08:24:40;10.30;;;5.30;;
57325;SDS011;43161;50.950;18.224;2023-06-10T08:27:06;11.50;;;5.40;;
57325;SDS011;43161;50.950;18.224;2023-06-10T08:29:32;11.20;;;5.60;;
57325;SDS011;43161;50.950;18.224;2023-06-10T08:31:58;10.60;;;5.50;;
57325;SDS011;43161;50.950;18.224;2023-06-10T08:34:24;11.30;;;6.00;;
57325;SDS011;43161;50.950;18.224;2023-06-10T08:36:50;10.70;;;5.50;;
57325;SDS011;43161;50.950;18.224;2023-06-10T08:39:19;12.90;;;5.70;;
57325;SDS011;43161;50.950;18.224;2023-06-10T08:41:46;11.90;;;5.60;;
57325;SDS011;43161;50.950;18.224;2023-06-10T08:44:22;10.00;;;5.40;;
57325;SDS011;43161;50.950;18.224;2023-06-10T08:46:50;10.80;;;5.70;;
57325;SDS011;43161;50.950;18.224;2023-06-10T08:49:18;11.50;;;5.80;;
57325;SDS011;43161;50.950;18.224;2023-06-10T08:51:48;11.50;;;5.70;;
57325;SDS011;43161;50.950;18.224;2023-06-10T08:54:17;11.90;;;5.90;;
57325;SDS011;43161;50.950;18.224;2023-06-10T08:56:46;12.20;;;5.90;;
57325;SDS011;43161;50.950;18.224;2023-06-10T08:59:15;11.20;;;5.40;;
57325;SDS011;43161;50.950;18.224;2023-06-10T09:01:42;12.50;;;5.50;;
57325;SDS011;43161;50.950;18.224;2023-06-10T09:04:10;13.20;;;5.50;;
57325;SDS011;43161;50.950;18.224;2023-06-10T09:06:37;9.80;;;5.40;;
57325;SDS011;43161;50.950;18.224;2023-06-10T09:09:03;10.30;;;5.70;;
57325;SDS011;43161;50.950;18.224;2023-06-10T09:11:31;11.60;;;5.40;;
57325;SDS011;43161;50.950;18.224;2023-06-10T09:13:56;10.70;;;5.50;;
57325;SDS011;43161;50.950;18.224;2023-06-10T09:16:23;14.10;;;6.10;;
57325;SDS011;43161;50.950;18.224;2023-06-10T09:18:49;10.50;;;5.40;;
57325;SDS011;43161;50.950;18.224;2023-06-10T09:21:23;14.60;;;6.00;;
57325;SDS011;43161;50.950;18.224;2023-06-10T09:23:48;11.50;;;5.40;;
57325;SDS011;43161;50.950;18.224;2023-06-10T09:26:14;12.70;;;5.70;;
57325;SDS011;43161;50.950;18.224;2023-06-10T09:28:41;11.60;;;5.60;;
57325;SDS011;43161;50.950;18.224;2023-06-10T09:31:09;12.30;;;5.50;;
57325;SDS011;43161;50.950;18.224;2023-06-10T09:33:38;10.20;;;5.40;;
57325;SDS011;43161;50.950;18.224;2023-06-10T09:36:07;10.60;;;5.20;;
57325;SDS011;43161;50.950;18.224;2023-06-10T09:38:33;10.80;;;5.80;;
57325;SDS011;43161;50.950;18.224;2023-06-10T09:40:59;11.50;;;5.70;;
57325;SDS011;43161;50.950;18.224;2023-06-10T09:43:38;11.80;;;5.70;;
57325;SDS011;43161;50.950;18.224;2023-06-10T09:46:16;10.30;;;5.80;;
57325;SDS011;43161;50.950;18.224;2023-06-10T09:48:43;11.70;;;5.70;;
57325;SDS011;43161;50.950;18.224;2023-06-10T09:51:10;12.00;;;6.20;;
57325;SDS011;43161;50.950;18.224;2023-06-10T09:53:37;12.30;;;6.90;;
57325;SDS011;43161;50.950;18.224;2023-06-10T09:56:03;12.20;;;6.10;;
57325;SDS011;43161;50.950;18.224;2023-06-10T09:58:38;13.60;;;6.50;;
57325;SDS011;43161;50.950;18.224;2023-06-10T10:01:04;11.30;;;6.90;;
57325;SDS011;43161;50.950;18.224;2023-06-10T10:03:46;13.50;;;7.30;;
57325;SDS011;43161;50.950;18.224;2023-06-10T10:06:14;14.50;;;6.80;;
57325;SDS011;43161;50.950;18.224;2023-06-10T10:08:41;13.50;;;6.50;;
57325;SDS011;43161;50.950;18.224;2023-06-10T10:11:08;12.80;;;6.70;;
57325;SDS011;43161;50.950;18.224;2023-06-10T10:13:35;12.70;;;6.30;;
57325;SDS011;43161;50.950;18.224;2023-06-10T10:16:06;12.30;;;6.30;;
57325;SDS011;43161;50.950;18.224;2023-06-10T10:18:38;12.10;;;7.00;;
57325;SDS011;43161;50.950;18.224;2023-06-10T10:21:07;12.00;;;7.00;;
57325;SDS011;43161;50.950;18.224;2023-06-10T10:23:40;13.80;;;7.30;;
57325;SDS011;43161;50.950;18.224;2023-06-10T10:26:16;13.20;;;7.00;;
57325;SDS011;43161;50.950;18.224;2023-06-10T10:28:47;13.30;;;7.20;;
57325;SDS011;43161;50.950;18.224;2023-06-10T10:31:18;12.90;;;7.00;;
57325;SDS011;43161;50.950;18.224;2023-06-10T10:36:27;12.60;;;7.40;;
57325;SDS011;43161;50.950;18.224;2023-06-10T10:38:53;12.90;;;7.80;;
57325;SDS011;43161;50.950;18.224;2023-06-10T10:41:19;13.40;;;7.30;;
57325;SDS011;43161;50.950;18.224;2023-06-10T10:43:46;14.40;;;8.10;;
57325;SDS011;43161;50.950;18.224;2023-06-10T10:46:13;15.40;;;7.70;;
57325;SDS011;43161;50.950;18.224;2023-06-10T10:48:40;12.40;;;7.90;;
57325;SDS011;43161;50.950;18.224;2023-06-10T10:51:07;14.80;;;7.30;;
57325;SDS011;43161;50.950;18.224;2023-06-10T10:53:34;12.00;;;7.20;;
57325;SDS011;43161;50.950;18.224;2023-06-10T10:56:00;14.30;;;7.20;;
57325;SDS011;43161;50.950;18.224;2023-06-10T10:58:30;12.40;;;7.60;;
57325;SDS011;43161;50.950;18.224;2023-06-10T11:00:57;12.40;;;7.20;;
57325;SDS011;43161;50.950;18.224;2023-06-10T11:03:24;11.80;;;7.30;;
57325;SDS011;43161;50.950;18.224;2023-06-10T11:05:53;12.20;;;7.50;;
57325;SDS011;43161;50.950;18.224;2023-06-10T11:19:31;12.80;;;7.60;;
57325;SDS011;43161;50.950;18.224;2023-06-10T11:22:05;12.90;;;7.90;;
57325;SDS011;43161;50.950;18.224;2023-06-10T11:24:31;12.60;;;7.40;;
57325;SDS011;43161;50.950;18.224;2023-06-10T11:32:29;11.90;;;6.10;;
57325;SDS011;43161;50.950;18.224;2023-06-10T11:34:57;11.20;;;6.40;;
57325;SDS011;43161;50.950;18.224;2023-06-10T11:37:22;11.80;;;6.70;;
57325;SDS011;43161;50.950;18.224;2023-06-10T11:39:52;11.50;;;6.50;;
57325;SDS011;43161;50.950;18.224;2023-06-10T11:42:22;11.40;;;6.20;;
57325;SDS011;43161;50.950;18.224;2023-06-10T11:44:51;11.70;;;6.80;;
57325;SDS011;43161;50.950;18.224;2023-06-10T11:47:19;15.40;;;6.10;;
57325;SDS011;43161;50.950;18.224;2023-06-10T11:49:46;10.30;;;5.70;;
57325;SDS011;43161;50.950;18.224;2023-06-10T11:52:15;10.70;;;6.40;;
57325;SDS011;43161;50.950;18.224;2023-06-10T11:54:41;11.20;;;6.40;;
57325;SDS011;43161;50.950;18.224;2023-06-10T11:57:07;12.00;;;6.10;;
57325;SDS011;43161;50.950;18.224;2023-06-10T11:59:33;12.00;;;6.30;;
57325;SDS011;43161;50.950;18.224;2023-06-10T12:01:59;11.00;;;6.10;;
57325;SDS011;43161;50.950;18.224;2023-06-10T12:04:25;12.40;;;6.10;;
57325;SDS011;43161;50.950;18.224;2023-06-10T12:06:52;13.50;;;6.60;;
57325;SDS011;43161;50.950;18.224;2023-06-10T12:09:19;13.50;;;6.10;;
57325;SDS011;43161;50.950;18.224;2023-06-10T12:11:45;12.80;;;6.30;;
57325;SDS011;43161;50.950;18.224;2023-06-10T12:14:15;13.40;;;6.50;;
57325;SDS011;43161;50.950;18.224;2023-06-10T12:16:47;9.70;;;5.70;;
57325;SDS011;43161;50.950;18.224;2023-06-10T12:19:14;11.70;;;6.20;;
57325;SDS011;43161;50.950;18.224;2023-06-10T12:21:40;12.30;;;5.60;;
57325;SDS011;43161;50.950;18.224;2023-06-10T12:24:09;11.60;;;5.60;;
57325;SDS011;43161;50.950;18.224;2023-06-10T12:26:35;11.70;;;5.30;;
57325;SDS011;43161;50.950;18.224;2023-06-10T12:29:23;12.60;;;5.50;;
57325;SDS011;43161;50.950;18.224;2023-06-10T12:31:58;11.60;;;5.10;;
57325;SDS011;43161;50.950;18.224;2023-06-10T12:34:30;12.50;;;5.10;;
57325;SDS011;43161;50.950;18.224;2023-06-10T12:37:06;9.90;;;4.30;;
57325;SDS011;43161;50.950;18.224;2023-06-10T12:39:39;11.10;;;4.90;;
57325;SDS011;43161;50.950;18.224;2023-06-10T12:42:05;10.90;;;4.80;;
57325;SDS011;43161;50.950;18.224;2023-06-10T12:44:43;10.20;;;4.30;;
57325;SDS011;43161;50.950;18.224;2023-06-10T12:47:09;8.90;;;3.80;;
57325;SDS011;43161;50.950;18.224;2023-06-10T12:49:38;9.60;;;3.50;;
57325;SDS011;43161;50.950;18.224;2023-06-10T12:52:04;9.60;;;3.30;;
57325;SDS011;43161;50.950;18.224;2023-06-10T12:54:30;12.10;;;3.50;;
57325;SDS011;43161;50.950;18.224;2023-06-10T12:56:56;9.50;;;3.50;;
57325;SDS011;43161;50.950;18.224;2023-06-10T12:59:22;11.20;;;3.00;;
57325;SDS011;43161;50.950;18.224;2023-06-10T13:01:50;9.00;;;3.40;;
57325;SDS011;43161;50.950;18.224;2023-06-10T13:04:17;9.60;;;3.50;;
57325;SDS011;43161;50.950;18.224;2023-06-10T13:06:43;9.50;;;3.50;;
57325;SDS011;43161;50.950;18.224;2023-06-10T13:09:09;10.70;;;3.20;;
57325;SDS011;43161;50.950;18.224;2023-06-10T13:11:35;8.80;;;3.10;;
57325;SDS011;43161;50.950;18.224;2023-06-10T13:14:01;9.00;;;3.30;;
57325;SDS011;43161;50.950;18.224;2023-06-10T13:16:30;9.20;;;3.20;;
57325;SDS011;43161;50.950;18.224;2023-06-10T13:18:56;10.40;;;3.30;;
57325;SDS011;43161;50.950;18.224;2023-06-10T13:21:22;10.30;;;3.20;;
57325;SDS011;43161;50.950;18.224;2023-06-10T13:23:48;10.30;;;3.40;;
57325;SDS011;43161;50.950;18.224;2023-06-10T13:26:14;10.00;;;3.00;;
57325;SDS011;43161;50.950;18.224;2023-06-10T13:28:42;9.00;;;3.20;;
57325;SDS011;43161;50.950;18.224;2023-06-10T13:31:08;8.70;;;3.00;;
57325;SDS011;43161;50.950;18.224;2023-06-10T13:33:34;8.10;;;3.10;;
57325;SDS011;43161;50.950;18.224;2023-06-10T13:36:00;7.80;;;2.80;;
57325;SDS011;43161;50.950;18.224;2023-06-10T13:38:25;11.10;;;3.10;;
57325;SDS011;43161;50.950;18.224;2023-06-10T13:40:51;12.00;;;3.10;;
57325;SDS011;43161;50.950;18.224;2023-06-10T13:43:17;10.60;;;2.90;;
57325;SDS011;43161;50.950;18.224;2023-06-10T13:45:42;9.60;;;3.00;;
57325;SDS011;43161;50.950;18.224;2023-06-10T13:48:08;8.70;;;2.80;;
57325;SDS011;43161;50.950;18.224;2023-06-10T13:50:34;12.90;;;3.10;;
57325;SDS011;43161;50.950;18.224;2023-06-10T13:53:00;8.90;;;3.20;;
57325;SDS011;43161;50.950;18.224;2023-06-10T13:55:25;8.20;;;2.70;;
57325;SDS011;43161;50.950;18.224;2023-06-10T13:57:51;9.20;;;3.00;;
57325;SDS011;43161;50.950;18.224;2023-06-10T14:00:16;11.00;;;3.10;;
57325;SDS011;43161;50.950;18.224;2023-06-10T14:02:42;8.10;;;2.80;;
57325;SDS011;43161;50.950;18.224;2023-06-10T14:05:08;10.00;;;2.80;;
57325;SDS011;43161;50.950;18.224;2023-06-10T14:07:34;12.70;;;2.90;;
57325;SDS011;43161;50.950;18.224;2023-06-10T14:10:00;8.20;;;2.60;;
57325;SDS011;43161;50.950;18.224;2023-06-10T14:12:26;11.70;;;3.00;;
57325;SDS011;43161;50.950;18.224;2023-06-10T14:14:52;9.00;;;2.80;;
57325;SDS011;43161;50.950;18.224;2023-06-10T14:17:17;9.40;;;2.80;;
57325;SDS011;43161;50.950;18.224;2023-06-10T14:19:43;7.80;;;2.80;;
57325;SDS011;43161;50.950;18.224;2023-06-10T14:22:09;8.00;;;2.90;;
57325;SDS011;43161;50.950;18.224;2023-06-10T14:24:35;9.20;;;3.00;;
57325;SDS011;43161;50.950;18.224;2023-06-10T14:27:01;9.80;;;3.00;;
57325;SDS011;43161;50.950;18.224;2023-06-10T14:29:27;8.60;;;2.90;;
57325;SDS011;43161;50.950;18.224;2023-06-10T14:31:54;10.70;;;3.00;;
57325;SDS011;43161;50.950;18.224;2023-06-10T14:34:20;8.30;;;2.50;;
57325;SDS011;43161;50.950;18.224;2023-06-10T14:36:48;9.90;;;2.90;;
57325;SDS011;43161;50.950;18.224;2023-06-10T14:39:14;8.90;;;2.90;;